aviador You're here:

UBBN Decoded Metar

NAKHCHIVAN in AZERBAIJAN
Report Time2018-02-17 23:00:00
UTC Time2018-02-17 23:35:20
Flight Rules vfr VFR
Wind130° at 10 kt
W.Decomp.*RWY 14: 9.7 kt HW 2.2 kt LCW
W.Rank130° ranks 2
Current wind is above 130° avg. (7.3)
Visibility9999 m
Phenomena:Light Rain
Clouds:Broken 040 Hf
Broken 090 Hf
Expected CloudBase > 1,200 ft AGL from Temp-Dew spread
Ceiling4,000 ft
Temp05°C (ISA +1)
Dew Point02°C (81% RH)
AAT-0.3°C
QNH1011 hPa
Density Alt5,978 ft
Elevation5,653 ft
Report Wrong Elevation
Raw Report
UBBN 172300Z 13010KT 9999 -RA BKN040 BKN090 05/02 Q1011
R14R/290050 NOSIG RMK MT OP QFE684=

Extra information for UBBN:More info

Metar Taf Metar & Taf Last 4 Metars F.Rules Stats Wind Profile Meteogram Temp Stats Airport Information Weather charts Add Link Nearby VenuesMetar ALERT Operation Metar Decoded Social comments